createdAt,value
2022-10-16T00:01:29.395Z,100353.06
2022-10-16T00:03:57.343Z,100355.53
2022-10-16T00:06:24.372Z,100359.09
2022-10-16T00:08:51.647Z,100364.53
2022-10-16T00:11:20.901Z,100378.47
2022-10-16T00:13:48.974Z,100376.59
2022-10-16T00:16:15.853Z,100371.78
2022-10-16T00:18:42.936Z,100372.53
2022-10-16T00:21:29.891Z,100364.63
2022-10-16T00:24:02.722Z,100369.78
2022-10-16T00:26:31.270Z,100367.13
2022-10-16T00:28:58.369Z,100373.31
2022-10-16T00:31:25.444Z,100371.53
2022-10-16T00:33:52.400Z,100370.38
2022-10-16T00:36:21.456Z,100384.56
2022-10-16T00:38:48.583Z,100381.84
2022-10-16T00:41:18.158Z,100382.81
2022-10-16T00:43:47.042Z,100387.91
2022-10-16T00:46:20.320Z,100395.00
2022-10-16T00:48:52.968Z,100395.78
2022-10-16T00:51:23.259Z,100396.56
2022-10-16T00:53:50.418Z,100396.63
2022-10-16T00:56:17.559Z,100386.03
2022-10-16T00:58:44.418Z,100393.78
2022-10-16T01:01:11.148Z,100403.44
2022-10-16T01:03:38.268Z,100397.97
2022-10-16T01:06:15.972Z,100399.81
2022-10-16T01:08:51.030Z,100400.47
2022-10-16T01:11:37.027Z,100406.63
2022-10-16T01:14:12.930Z,100422.44
2022-10-16T01:17:01.761Z,100416.91
2022-10-16T01:19:42.106Z,100413.66
2022-10-16T01:22:09.861Z,100418.06
2022-10-16T01:24:41.747Z,100411.69
2022-10-16T01:27:14.046Z,100417.00
2022-10-16T01:29:50.885Z,100417.06
2022-10-16T01:32:22.914Z,100414.28
2022-10-16T01:34:56.699Z,100426.66
2022-10-16T01:37:34.332Z,100429.34
2022-10-16T01:40:04.296Z,100415.13
2022-10-16T01:42:35.934Z,100426.53
2022-10-16T01:45:04.049Z,100420.03
2022-10-16T01:47:31.678Z,100419.28
2022-10-16T01:49:59.850Z,100429.84
2022-10-16T01:52:28.138Z,100423.72
2022-10-16T01:54:56.575Z,100430.84
2022-10-16T01:57:26.547Z,100432.56
2022-10-16T01:59:56.114Z,100434.16
2022-10-16T02:02:23.763Z,100441.84
2022-10-16T02:04:54.526Z,100450.66
2022-10-16T02:07:21.199Z,100443.69
2022-10-16T02:09:47.894Z,100440.91
2022-10-16T02:12:20.483Z,100444.56
2022-10-16T02:14:47.113Z,100437.56
2022-10-16T02:17:16.589Z,100434.66
2022-10-16T02:19:44.624Z,100449.88
2022-10-16T02:22:17.387Z,100459.63
2022-10-16T02:25:06.161Z,100459.69
2022-10-16T02:27:37.619Z,100455.91
2022-10-16T02:30:16.049Z,100467.66
2022-10-16T02:32:44.579Z,100469.31
2022-10-16T02:35:11.671Z,100465.88
2022-10-16T02:37:39.490Z,100474.72
2022-10-16T02:40:06.897Z,100480.03
2022-10-16T02:42:38.834Z,100480.97
2022-10-16T02:45:06.572Z,100480.88
2022-10-16T02:47:33.257Z,100473.88
2022-10-16T02:50:00.280Z,100472.91
2022-10-16T02:52:27.224Z,100477.28
2022-10-16T02:54:54.016Z,100480.09
2022-10-16T02:57:20.639Z,100490.78
2022-10-16T02:59:47.544Z,100486.47
2022-10-16T03:02:14.238Z,100489.97
2022-10-16T03:04:40.853Z,100493.56
2022-10-16T03:07:07.575Z,100501.41
2022-10-16T03:09:34.455Z,100495.09
2022-10-16T03:12:01.208Z,100494.38
2022-10-16T03:16:55.335Z,100487.44
2022-10-16T03:19:22.002Z,100503.38
2022-10-16T03:21:48.676Z,100503.53
2022-10-16T03:24:15.354Z,100507.59
2022-10-16T03:26:42.042Z,100517.13
2022-10-16T03:29:08.993Z,100515.56
2022-10-16T03:31:35.614Z,100516.41
2022-10-16T03:34:02.182Z,100506.66
2022-10-16T03:36:28.813Z,100505.97
2022-10-16T03:38:55.404Z,100514.97
2022-10-16T03:41:22.134Z,100520.38
2022-10-16T03:43:48.856Z,100522.38
2022-10-16T03:46:15.442Z,100530.56
2022-10-16T03:48:42.094Z,100543.09
2022-10-16T03:51:08.761Z,100541.44
2022-10-16T03:53:35.349Z,100531.00
2022-10-16T03:56:01.991Z,100523.19
2022-10-16T03:58:28.595Z,100529.53
2022-10-16T04:00:55.387Z,100533.19
2022-10-16T04:03:22.430Z,100526.28
2022-10-16T04:05:49.143Z,100531.72
2022-10-16T04:08:15.761Z,100536.38
2022-10-16T04:10:45.707Z,100523.16
2022-10-16T04:13:13.028Z,100526.84
2022-10-16T04:15:40.123Z,100528.03
2022-10-16T04:18:07.060Z,100545.81
2022-10-16T04:20:34.307Z,100539.88
2022-10-16T04:23:01.109Z,100554.22
2022-10-16T04:25:27.849Z,100560.56
2022-10-16T04:27:55.303Z,100558.97
2022-10-16T04:30:22.722Z,100565.28
2022-10-16T04:32:52.990Z,100560.97
2022-10-16T04:35:21.160Z,100560.19
2022-10-16T04:37:48.047Z,100558.44
2022-10-16T04:40:15.057Z,100563.84
2022-10-16T04:42:41.765Z,100562.28
2022-10-16T04:45:12.001Z,100566.78
2022-10-16T04:47:41.680Z,100577.44
2022-10-16T04:50:08.894Z,100573.94
2022-10-16T04:55:03.742Z,100566.91
2022-10-16T04:57:30.724Z,100563.50
2022-10-16T04:59:57.755Z,100568.16
2022-10-16T05:02:24.612Z,100565.63
2022-10-16T05:04:51.480Z,100571.94
2022-10-16T05:07:18.567Z,100565.88
2022-10-16T05:09:45.390Z,100575.59
2022-10-16T05:12:12.184Z,100573.94
2022-10-16T05:14:38.990Z,100585.50
2022-10-16T05:17:05.839Z,100582.91
2022-10-16T05:19:32.674Z,100583.88
2022-10-16T05:21:59.346Z,100584.84
2022-10-16T05:24:26.154Z,100574.41
2022-10-16T05:26:53.167Z,100576.19
2022-10-16T05:29:20.253Z,100576.25
2022-10-16T05:31:46.979Z,100576.25
2022-10-16T05:34:13.884Z,100591.16
2022-10-16T05:36:40.706Z,100591.28
2022-10-16T05:39:07.502Z,100597.56
2022-10-16T05:41:34.310Z,100601.91
2022-10-16T05:44:01.042Z,100610.72
2022-10-16T05:46:27.871Z,100614.19
2022-10-16T05:48:54.639Z,100611.47
2022-10-16T05:51:21.468Z,100604.34
2022-10-16T05:53:48.567Z,100611.34
2022-10-16T05:56:17.903Z,100604.25
2022-10-16T05:58:48.103Z,100615.66
2022-10-16T06:01:17.650Z,100611.22
2022-10-16T06:03:44.632Z,100617.28
2022-10-16T06:06:13.517Z,100620.75
2022-10-16T06:08:41.322Z,100624.25
2022-10-16T06:11:10.556Z,100615.44
2022-10-16T06:13:37.641Z,100616.25
2022-10-16T06:16:05.159Z,100619.72
2022-10-16T06:18:32.176Z,100627.63
2022-10-16T06:20:59.988Z,100633.75
2022-10-16T06:23:27.103Z,100646.91
2022-10-16T06:25:53.888Z,100649.53
2022-10-16T06:28:20.640Z,100636.28
2022-10-16T06:30:47.565Z,100638.56
2022-10-16T06:33:14.360Z,100639.41
2022-10-16T06:35:41.258Z,100647.31
2022-10-16T06:38:08.156Z,100652.28
2022-10-16T06:40:34.958Z,100661.97
2022-10-16T06:43:01.693Z,100665.31
2022-10-16T06:45:28.335Z,100672.41
2022-10-16T06:47:54.944Z,100673.16
2022-10-16T06:50:21.580Z,100680.88
2022-10-16T06:52:48.433Z,100677.22
2022-10-16T06:55:15.726Z,100676.19
2022-10-16T06:57:42.382Z,100682.13
2022-10-16T07:00:09.430Z,100671.31
2022-10-16T07:02:36.054Z,100686.69
2022-10-16T07:05:02.731Z,100679.53
2022-10-16T07:07:29.430Z,100683.75
2022-10-16T07:09:56.034Z,100687.06
2022-10-16T07:12:22.632Z,100701.16
2022-10-16T07:14:49.228Z,100698.09
2022-10-16T07:17:15.794Z,100712.19
2022-10-16T07:19:42.373Z,100703.16
2022-10-16T07:22:09.174Z,100709.16
2022-10-16T07:24:35.847Z,100717.88
2022-10-16T07:27:02.547Z,100718.66
2022-10-16T07:29:29.167Z,100723.41
2022-10-16T07:31:55.747Z,100731.44
2022-10-16T07:34:25.395Z,100727.94
2022-10-16T07:36:52.417Z,100726.69
2022-10-16T07:39:19.220Z,100728.47
2022-10-16T07:41:45.852Z,100725.72
2022-10-16T07:44:12.606Z,100720.81
2022-10-16T07:46:39.207Z,100722.00
2022-10-16T07:49:05.828Z,100734.47
2022-10-16T07:51:32.577Z,100735.59
2022-10-16T07:53:59.554Z,100731.56
2022-10-16T07:56:26.275Z,100738.84
2022-10-16T07:58:53.086Z,100735.03
2022-10-16T08:01:19.925Z,100727.63
2022-10-16T08:03:48.317Z,100729.25
2022-10-16T08:06:15.245Z,100730.00
2022-10-16T08:08:42.001Z,100723.44
2022-10-16T08:11:09.039Z,100727.72
2022-10-16T08:13:35.925Z,100737.03
2022-10-16T08:16:02.712Z,100736.22
2022-10-16T08:18:29.419Z,100724.34
2022-10-16T08:20:58.161Z,100720.47
2022-10-16T08:23:26.858Z,100728.22
2022-10-16T08:25:54.599Z,100730.91
2022-10-16T08:28:21.529Z,100730.88
2022-10-16T08:30:48.169Z,100734.03
2022-10-16T08:33:14.960Z,100736.38
2022-10-16T08:35:41.714Z,100734.28
2022-10-16T08:38:08.401Z,100745.25
2022-10-16T08:40:37.380Z,100742.97
2022-10-16T08:43:31.629Z,100739.03
2022-10-16T08:46:25.863Z,100740.16
2022-10-16T08:48:54.594Z,100736.56
2022-10-16T08:51:25.243Z,100736.09
2022-10-16T08:53:57.355Z,100745.19
2022-10-16T08:56:24.827Z,100751.69
2022-10-16T08:58:55.268Z,100760.28
2022-10-16T09:01:29.245Z,100771.38
2022-10-16T09:04:17.462Z,100764.34
2022-10-16T09:06:48.166Z,100770.72
2022-10-16T09:09:21.487Z,100765.09
2022-10-16T09:11:58.124Z,100762.88
2022-10-16T09:14:44.905Z,100761.44
2022-10-16T09:17:37.981Z,100752.56
2022-10-16T09:20:23.487Z,100757.16
2022-10-16T09:22:50.098Z,100774.63
2022-10-16T09:25:19.207Z,100777.78
2022-10-16T09:27:48.758Z,100779.03
2022-10-16T09:30:20.254Z,100769.41
2022-10-16T09:32:49.498Z,100764.03
2022-10-16T09:35:32.598Z,100770.44
2022-10-16T09:37:59.165Z,100780.44
2022-10-16T09:40:39.542Z,100780.00
2022-10-16T09:43:23.034Z,100787.09
2022-10-16T09:45:58.007Z,100786.94
2022-10-16T09:48:26.849Z,100782.00
2022-10-16T09:51:00.987Z,100783.66
2022-10-16T09:53:45.069Z,100781.81
2022-10-16T09:56:14.693Z,100784.00
2022-10-16T09:58:45.819Z,100797.81
2022-10-16T10:01:14.752Z,100804.50
2022-10-16T10:03:43.110Z,100797.66
2022-10-16T10:06:27.598Z,100799.56
2022-10-16T10:09:24.350Z,100804.53
2022-10-16T10:11:58.836Z,100808.84
2022-10-16T10:14:47.549Z,100810.88
2022-10-16T10:17:18.485Z,100811.59
2022-10-16T10:19:49.305Z,100814.41
2022-10-16T10:22:28.761Z,100815.88
2022-10-16T10:25:14.341Z,100826.47
2022-10-16T10:27:44.999Z,100818.78
2022-10-16T10:30:27.619Z,100817.72
2022-10-16T10:33:20.583Z,100813.53
2022-10-16T10:36:05.451Z,100818.31
2022-10-16T10:38:50.084Z,100822.81
2022-10-16T10:41:35.308Z,100809.91
2022-10-16T10:44:39.179Z,100810.94
2022-10-16T10:47:19.855Z,100815.22
2022-10-16T10:50:02.053Z,100821.41
2022-10-16T10:52:40.083Z,100824.44
2022-10-16T10:55:25.042Z,100828.25
2022-10-16T10:58:31.126Z,100821.97
2022-10-16T11:01:13.419Z,100829.00
2022-10-16T11:04:06.722Z,100825.59
2022-10-16T11:06:41.217Z,100841.25
2022-10-16T11:09:18.811Z,100832.06
2022-10-16T11:11:53.023Z,100829.09
2022-10-16T11:14:36.300Z,100829.81
2022-10-16T11:17:11.941Z,100825.00
2022-10-16T11:19:46.162Z,100830.84
2022-10-16T11:22:30.501Z,100825.88
2022-10-16T11:25:14.511Z,100826.47
2022-10-16T11:27:50.368Z,100825.63
2022-10-16T11:30:28.300Z,100840.75
2022-10-16T11:33:10.626Z,100835.81
2022-10-16T11:35:47.530Z,100838.88
2022-10-16T11:38:28.084Z,100837.53
2022-10-16T11:40:58.067Z,100826.84
2022-10-16T11:43:38.330Z,100832.78
2022-10-16T11:46:18.936Z,100838.13
2022-10-16T11:48:52.820Z,100844.06
2022-10-16T11:51:25.142Z,100835.66
2022-10-16T11:54:03.436Z,100843.16
2022-10-16T11:56:30.587Z,100848.09
2022-10-16T11:59:02.123Z,100847.44
2022-10-16T12:01:29.971Z,100839.44
2022-10-16T12:04:16.295Z,100842.38
2022-10-16T12:06:59.402Z,100844.97
2022-10-16T12:09:29.011Z,100846.16
2022-10-16T12:11:55.819Z,100841.16
2022-10-16T12:14:28.739Z,100846.78
2022-10-16T12:17:15.788Z,100847.63
2022-10-16T12:19:42.486Z,100839.78
2022-10-16T12:22:19.496Z,100851.31
2022-10-16T12:24:46.151Z,100845.22
2022-10-16T12:27:31.801Z,100849.88
2022-10-16T12:30:01.294Z,100844.34
2022-10-16T12:32:48.180Z,100848.31
2022-10-16T12:35:27.609Z,100857.41
2022-10-16T12:37:54.618Z,100851.44
2022-10-16T12:40:28.198Z,100859.16
2022-10-16T12:42:54.925Z,100869.97
2022-10-16T12:45:30.657Z,100864.53
2022-10-16T12:47:57.850Z,100869.03
2022-10-16T12:50:39.319Z,100873.69
2022-10-16T12:53:27.146Z,100873.78
2022-10-16T12:56:05.708Z,100874.28
2022-10-16T12:58:43.275Z,100871.78
2022-10-16T13:01:19.125Z,100878.78
2022-10-16T13:04:19.669Z,100884.69
2022-10-16T13:07:08.848Z,100875.69
2022-10-16T13:09:48.048Z,100883.56
2022-10-16T13:12:36.094Z,100887.34
2022-10-16T13:15:21.641Z,100888.28
2022-10-16T13:18:04.593Z,100906.09
2022-10-16T13:21:11.321Z,100897.31
2022-10-16T13:24:02.535Z,100896.16
2022-10-16T13:26:35.709Z,100903.63
2022-10-16T13:29:02.878Z,100909.56
2022-10-16T13:31:30.916Z,100914.06
2022-10-16T13:34:00.284Z,100908.03
2022-10-16T13:36:35.468Z,100925.50
2022-10-16T13:39:12.010Z,100914.06
2022-10-16T13:41:38.771Z,100914.84
2022-10-16T13:44:06.379Z,100913.69
2022-10-16T13:46:35.491Z,100920.72
2022-10-16T13:49:11.650Z,100914.16
2022-10-16T13:51:38.348Z,100920.88
2022-10-16T13:54:05.123Z,100926.41
2022-10-16T13:56:33.618Z,100926.31
2022-10-16T13:59:06.554Z,100927.56
2022-10-16T14:01:35.956Z,100930.50
2022-10-16T14:04:07.495Z,100928.59
2022-10-16T14:06:34.401Z,100928.75
2022-10-16T14:09:08.037Z,100932.38
2022-10-16T14:11:46.250Z,100935.03
2022-10-16T14:14:13.434Z,100943.50
2022-10-16T14:16:42.339Z,100944.69
2022-10-16T14:19:19.390Z,100945.66
2022-10-16T14:21:46.035Z,100940.78
2022-10-16T14:24:14.871Z,100949.72
2022-10-16T14:26:49.632Z,100960.91
2022-10-16T14:29:21.131Z,100957.75
2022-10-16T14:32:06.906Z,100971.25
2022-10-16T14:34:35.849Z,100968.72
2022-10-16T14:39:36.433Z,100986.41
2022-10-16T14:42:03.082Z,100985.88
2022-10-16T14:44:34.754Z,100983.66
2022-10-16T14:47:14.325Z,100980.84
2022-10-16T14:49:42.840Z,100984.19
2022-10-16T14:52:11.002Z,100985.56
2022-10-16T14:54:37.617Z,100992.41
2022-10-16T14:57:04.459Z,100995.53
2022-10-16T14:59:40.899Z,100998.03
2022-10-16T15:02:29.672Z,101003.16
2022-10-16T15:04:56.841Z,101004.38
2022-10-16T15:07:24.001Z,101001.19
2022-10-16T15:09:51.686Z,101006.19
2022-10-16T15:12:18.641Z,101006.78
2022-10-16T15:14:45.230Z,100995.94
2022-10-16T15:17:12.080Z,101004.81
2022-10-16T15:19:38.864Z,101001.19
2022-10-16T15:22:05.478Z,101003.34
2022-10-16T15:24:32.127Z,101004.84
2022-10-16T15:26:58.714Z,101012.22
2022-10-16T15:29:25.313Z,101019.59
2022-10-16T15:31:52.107Z,101027.94
2022-10-16T15:34:20.469Z,101023.31
2022-10-16T15:36:47.107Z,101033.78
2022-10-16T15:39:15.842Z,101031.53
2022-10-16T15:41:43.094Z,101028.63
2022-10-16T15:44:09.950Z,101033.34
2022-10-16T15:46:38.099Z,101043.00
2022-10-16T15:49:05.226Z,101040.25
2022-10-16T15:51:34.079Z,101056.53
2022-10-16T15:54:02.795Z,101058.03
2022-10-16T15:56:30.306Z,101064.47
2022-10-16T15:59:00.554Z,101067.72
2022-10-16T16:01:29.923Z,101059.44
2022-10-16T16:03:56.738Z,101064.34
2022-10-16T16:06:24.813Z,101075.41
2022-10-16T16:08:53.783Z,101073.31
2022-10-16T16:11:21.086Z,101076.28
2022-10-16T16:13:48.358Z,101083.56
2022-10-16T16:16:16.726Z,101084.63
2022-10-16T16:18:43.846Z,101084.28
2022-10-16T16:21:12.248Z,101093.53
2022-10-16T16:23:39.342Z,101100.81
2022-10-16T16:26:24.852Z,101097.72
2022-10-16T16:28:51.669Z,101098.84
2022-10-16T16:31:22.795Z,101104.53
2022-10-16T16:33:52.088Z,101117.81
2022-10-16T16:36:21.455Z,101121.66
2022-10-16T16:38:48.210Z,101122.03
2022-10-16T16:41:21.742Z,101125.59
2022-10-16T16:43:48.519Z,101140.41
2022-10-16T16:46:16.115Z,101147.41
2022-10-16T16:48:42.749Z,101154.03
2022-10-16T16:51:20.917Z,101162.56
2022-10-16T16:53:51.479Z,101159.28
2022-10-16T16:56:21.030Z,101160.38
2022-10-16T16:58:52.683Z,101177.16
2022-10-16T17:01:21.385Z,101171.28
2022-10-16T17:03:52.649Z,101176.81
2022-10-16T17:06:21.494Z,101180.38
2022-10-16T17:08:49.139Z,101189.16
2022-10-16T17:11:18.454Z,101200.03
2022-10-16T17:13:45.271Z,101203.72
2022-10-16T17:16:12.036Z,101199.53
2022-10-16T17:18:38.797Z,101208.47
2022-10-16T17:21:08.211Z,101214.00
2022-10-16T17:23:35.797Z,101220.28
2022-10-16T17:26:08.523Z,101230.19
2022-10-16T17:28:35.368Z,101231.09
2022-10-16T17:33:40.957Z,101241.13
2022-10-16T17:36:08.305Z,101243.91
2022-10-16T17:38:38.177Z,101248.56
2022-10-16T17:41:16.466Z,101244.28
2022-10-16T17:43:43.596Z,101251.47
2022-10-16T17:46:11.742Z,101249.72
2022-10-16T17:48:39.493Z,101249.75
2022-10-16T17:51:11.030Z,101250.84
2022-10-16T17:53:37.918Z,101253.44
2022-10-16T17:56:06.379Z,101260.63
2022-10-16T17:58:32.989Z,101265.91
2022-10-16T18:00:59.761Z,101268.75
2022-10-16T18:03:27.074Z,101262.66
2022-10-16T18:05:55.436Z,101259.16
2022-10-16T18:08:26.395Z,101263.63
2022-10-16T18:10:55.635Z,101261.97
2022-10-16T18:13:22.318Z,101262.09
2022-10-16T18:15:59.920Z,101269.97
2022-10-16T18:18:28.899Z,101267.56
2022-10-16T18:21:00.471Z,101276.38
2022-10-16T18:23:27.914Z,101280.94
2022-10-16T18:25:55.267Z,101290.59
2022-10-16T18:28:23.670Z,101295.06
2022-10-16T18:30:56.072Z,101295.13
2022-10-16T18:33:22.681Z,101295.16
2022-10-16T18:35:49.884Z,101310.28
2022-10-16T18:38:16.779Z,101307.66
2022-10-16T18:40:43.538Z,101318.28
2022-10-16T18:43:10.269Z,101317.50
2022-10-16T18:45:36.887Z,101322.91
2022-10-16T18:48:04.014Z,101326.44
2022-10-16T18:50:30.913Z,101332.63
2022-10-16T18:52:57.737Z,101339.63
2022-10-16T18:55:28.951Z,101337.94
2022-10-16T18:57:57.427Z,101343.28
2022-10-16T19:00:24.090Z,101342.47
2022-10-16T19:02:50.819Z,101340.69
2022-10-16T19:05:17.452Z,101338.94
2022-10-16T19:07:46.321Z,101348.63
2022-10-16T19:10:13.071Z,101339.03
2022-10-16T19:12:41.183Z,101341.56
2022-10-16T19:15:08.297Z,101346.94
2022-10-16T19:17:37.116Z,101357.53
2022-10-16T19:20:06.013Z,101360.19
2022-10-16T19:22:54.061Z,101355.81
2022-10-16T19:25:22.368Z,101362.94
2022-10-16T19:27:50.198Z,101362.09
2022-10-16T19:30:18.216Z,101366.50
2022-10-16T19:32:46.117Z,101380.53
2022-10-16T19:35:12.954Z,101368.31
2022-10-16T19:37:39.841Z,101363.88
2022-10-16T19:40:07.008Z,101371.81
2022-10-16T19:42:33.769Z,101377.13
2022-10-16T19:45:00.370Z,101381.59
2022-10-16T19:47:27.029Z,101383.34
2022-10-16T19:49:54.373Z,101389.50
2022-10-16T19:52:22.282Z,101385.06
2022-10-16T19:54:48.976Z,101397.41
2022-10-16T19:57:15.663Z,101407.97
2022-10-16T19:59:44.922Z,101408.00
2022-10-16T20:02:12.435Z,101401.81
2022-10-16T20:04:39.094Z,101408.81
2022-10-16T20:07:05.904Z,101404.41
2022-10-16T20:09:34.392Z,101399.19
2022-10-16T20:12:02.289Z,101407.03
2022-10-16T20:14:28.929Z,101401.72
2022-10-16T20:16:56.017Z,101397.28
2022-10-16T20:19:22.732Z,101411.44
2022-10-16T20:21:49.401Z,101417.66
2022-10-16T20:24:16.036Z,101417.59
2022-10-16T20:26:42.684Z,101422.91
2022-10-16T20:29:09.372Z,101420.25
2022-10-16T20:31:36.605Z,101418.47
2022-10-16T20:34:05.826Z,101423.81
2022-10-16T20:36:33.464Z,101413.19
2022-10-16T20:39:00.465Z,101421.03
2022-10-16T20:41:27.058Z,101421.00
2022-10-16T20:43:54.031Z,101420.13
2022-10-16T20:46:23.714Z,101415.75
2022-10-16T20:48:51.312Z,101414.03
2022-10-16T20:51:29.485Z,101412.34
2022-10-16T20:54:01.124Z,101409.72
2022-10-16T20:56:30.261Z,101422.06
2022-10-16T20:58:57.136Z,101426.47
2022-10-16T21:01:25.813Z,101427.38
2022-10-16T21:03:55.092Z,101422.13
2022-10-16T21:06:21.881Z,101428.25
2022-10-16T21:08:48.669Z,101428.28
2022-10-16T21:11:24.784Z,101434.44
2022-10-16T21:13:54.489Z,101451.16
2022-10-16T21:16:21.811Z,101448.50
2022-10-16T21:18:48.695Z,101444.97
2022-10-16T21:21:32.665Z,101442.31
2022-10-16T21:24:02.146Z,101451.94
2022-10-16T21:26:29.997Z,101462.53
2022-10-16T21:29:05.323Z,101457.25
2022-10-16T21:31:33.210Z,101469.56
2022-10-16T21:34:00.045Z,101469.56
2022-10-16T21:36:29.105Z,101477.44
2022-10-16T21:38:56.452Z,101482.72
2022-10-16T21:41:25.117Z,101490.66
2022-10-16T21:43:52.176Z,101488.91
2022-10-16T21:46:20.655Z,101483.63
2022-10-16T21:48:47.687Z,101489.78
2022-10-16T21:51:15.467Z,101489.78
2022-10-16T21:53:42.893Z,101495.06
2022-10-16T21:56:17.468Z,101493.34
2022-10-16T21:58:45.124Z,101483.69
2022-10-16T22:01:14.597Z,101484.53
2022-10-16T22:03:41.388Z,101488.06
2022-10-16T22:06:09.073Z,101498.63
2022-10-16T22:08:37.978Z,101496.00
2022-10-16T22:11:22.366Z,101492.47
2022-10-16T22:13:54.149Z,101498.63
2022-10-16T22:16:25.185Z,101515.31
2022-10-16T22:18:56.583Z,101504.78
2022-10-16T22:21:23.725Z,101498.66
2022-10-16T22:23:50.367Z,101501.31
2022-10-16T22:26:16.991Z,101503.06
2022-10-16T22:28:43.685Z,101507.50
2022-10-16T22:31:15.705Z,101501.38
2022-10-16T22:33:45.842Z,101505.75
2022-10-16T22:36:13.961Z,101511.03
2022-10-16T22:38:41.081Z,101501.38
2022-10-16T22:41:10.316Z,101497.00
2022-10-16T22:43:39.443Z,101497.00
2022-10-16T22:46:07.887Z,101492.59
2022-10-16T22:48:35.769Z,101494.31
2022-10-16T22:51:03.419Z,101496.09
2022-10-16T22:53:30.011Z,101487.34
2022-10-16T22:55:56.861Z,101490.00
2022-10-16T22:58:23.471Z,101499.66
2022-10-16T23:00:50.334Z,101501.44
2022-10-16T23:03:17.443Z,101507.59
2022-10-16T23:05:44.227Z,101511.97
2022-10-16T23:08:12.109Z,101519.88
2022-10-16T23:10:39.859Z,101519.00
2022-10-16T23:13:06.477Z,101520.78
2022-10-16T23:15:33.101Z,101514.63
2022-10-16T23:17:59.679Z,101516.38
2022-10-16T23:20:26.290Z,101513.75
2022-10-16T23:22:53.062Z,101525.19
2022-10-16T23:25:19.672Z,101528.69
2022-10-16T23:27:46.629Z,101527.78
2022-10-16T23:30:13.491Z,101533.97
2022-10-16T23:32:41.410Z,101545.38
2022-10-16T23:35:09.527Z,101548.91
2022-10-16T23:37:36.153Z,101545.38
2022-10-16T23:40:02.808Z,101551.50
2022-10-16T23:42:29.793Z,101555.03
2022-10-16T23:44:56.722Z,101552.38
2022-10-16T23:47:23.351Z,101562.94
2022-10-16T23:49:49.969Z,101560.28
2022-10-16T23:52:16.625Z,101552.41
2022-10-16T23:54:43.286Z,101546.22
2022-10-16T23:57:10.019Z,101546.22
2022-10-16T23:59:36.783Z,101540.03
